createdAt,value
2019-06-09T00:01:51.813Z,8.30
2019-06-09T00:04:23.334Z,7.00
2019-06-09T00:06:57.072Z,7.00
2019-06-09T00:09:28.672Z,6.40
2019-06-09T00:12:00.863Z,6.63
2019-06-09T00:14:32.500Z,6.40
2019-06-09T00:17:04.261Z,5.93
2019-06-09T00:19:37.354Z,5.80
2019-06-09T00:22:09.939Z,5.90
2019-06-09T00:24:42.952Z,5.57
2019-06-09T00:27:14.318Z,5.73
2019-06-09T00:29:48.348Z,5.63
2019-06-09T00:32:22.340Z,5.73
2019-06-09T00:34:53.803Z,5.90
2019-06-09T00:37:27.269Z,6.30
2019-06-09T00:39:59.281Z,6.00
2019-06-09T00:42:31.490Z,16.83
2019-06-09T00:45:04.159Z,15.83
2019-06-09T00:47:37.478Z,16.53
2019-06-09T00:50:13.648Z,16.90
2019-06-09T00:52:48.889Z,12.20
2019-06-09T00:55:23.599Z,10.63
2019-06-09T00:57:53.641Z,10.47
2019-06-09T01:00:27.467Z,9.87
2019-06-09T01:02:58.403Z,10.90
2019-06-09T01:05:29.941Z,13.43
2019-06-09T01:08:01.317Z,11.33
2019-06-09T01:10:32.864Z,12.13
2019-06-09T01:13:04.246Z,13.70
2019-06-09T01:15:37.710Z,12.50
2019-06-09T01:18:11.201Z,11.33
2019-06-09T01:20:42.849Z,11.57
2019-06-09T01:23:14.331Z,10.70
2019-06-09T01:25:47.352Z,9.97
2019-06-09T01:28:20.321Z,10.20
2019-06-09T01:30:53.217Z,9.17
2019-06-09T01:33:24.587Z,8.57
2019-06-09T01:35:57.536Z,8.73
2019-06-09T01:38:29.189Z,8.00
2019-06-09T01:41:00.732Z,8.17
2019-06-09T01:43:32.146Z,7.70
2019-06-09T01:46:03.731Z,6.77
2019-06-09T01:48:35.207Z,7.87
2019-06-09T01:51:08.091Z,7.20
2019-06-09T01:53:39.641Z,7.23
2019-06-09T01:56:12.267Z,7.13
2019-06-09T01:58:44.905Z,7.27
2019-06-09T02:01:20.023Z,6.47
2019-06-09T02:03:49.394Z,6.23
2019-06-09T02:06:22.030Z,6.43
2019-06-09T02:08:53.991Z,6.77
2019-06-09T02:11:27.315Z,5.90
2019-06-09T02:13:58.425Z,6.40
2019-06-09T02:16:29.868Z,6.27
2019-06-09T02:19:01.229Z,6.20
2019-06-09T02:21:32.999Z,6.13
2019-06-09T02:24:08.242Z,5.97
2019-06-09T02:26:39.524Z,6.27
2019-06-09T02:29:10.992Z,6.27
2019-06-09T02:31:43.023Z,6.03
2019-06-09T02:34:17.331Z,7.07
2019-06-09T02:36:54.075Z,6.53
2019-06-09T02:39:30.499Z,7.27
2019-06-09T02:41:56.548Z,6.50
2019-06-09T02:44:35.489Z,6.60
2019-06-09T02:47:13.187Z,6.40
2019-06-09T02:49:45.609Z,7.10
2019-06-09T02:52:18.866Z,9.43
2019-06-09T02:54:52.724Z,8.93
2019-06-09T02:57:30.090Z,5.87
2019-06-09T02:59:56.907Z,5.50
2019-06-09T03:02:33.107Z,4.97
2019-06-09T03:05:02.989Z,5.57
2019-06-09T03:07:40.483Z,4.97
2019-06-09T03:10:08.436Z,5.40
2019-06-09T03:12:44.125Z,5.50
2019-06-09T03:15:14.248Z,6.10
2019-06-09T03:17:46.696Z,6.40
2019-06-09T03:20:18.906Z,6.50
2019-06-09T03:22:52.363Z,6.70
2019-06-09T03:25:27.544Z,6.10
2019-06-09T03:27:56.713Z,7.43
2019-06-09T03:30:42.134Z,8.80
2019-06-09T03:36:27.264Z,8.90
2019-06-09T03:38:19.410Z,7.70
2019-06-09T03:40:46.041Z,7.67
2019-06-09T03:43:14.980Z,7.43
2019-06-09T03:45:46.351Z,7.07
2019-06-09T03:48:17.874Z,6.63
2019-06-09T03:50:55.891Z,6.20
2019-06-09T03:53:28.859Z,6.57
2019-06-09T03:55:57.470Z,6.20
2019-06-09T03:58:38.141Z,7.20
2019-06-09T04:01:02.860Z,8.37
2019-06-09T04:03:41.212Z,8.53
2019-06-09T04:06:23.411Z,8.53
2019-06-09T04:08:45.942Z,9.53
2019-06-09T04:11:15.582Z,11.73
2019-06-09T04:13:48.027Z,8.87
2019-06-09T04:16:22.793Z,8.70
2019-06-09T04:18:53.280Z,9.30
2019-06-09T04:21:28.837Z,8.77
2019-06-09T04:24:01.866Z,8.83
2019-06-09T04:26:38.227Z,8.50
2019-06-09T04:29:07.697Z,8.87
2019-06-09T04:31:44.419Z,8.37
2019-06-09T04:34:13.374Z,8.73
2019-06-09T04:36:56.383Z,8.73
2019-06-09T04:39:18.443Z,8.93
2019-06-09T04:41:52.106Z,8.87
2019-06-09T04:44:25.205Z,10.13
2019-06-09T04:46:56.097Z,9.27
2019-06-09T04:49:30.000Z,9.93
2019-06-09T04:52:01.965Z,10.10
2019-06-09T04:54:37.958Z,9.17
2019-06-09T04:57:07.016Z,8.37
2019-06-09T04:59:43.194Z,8.30
2019-06-09T05:02:12.275Z,7.43
2019-06-09T05:04:48.874Z,7.37
2019-06-09T05:07:27.391Z,7.70
2019-06-09T05:09:52.928Z,11.63
2019-06-09T05:12:24.158Z,8.43
2019-06-09T05:14:55.942Z,7.73
2019-06-09T05:17:28.623Z,8.53
2019-06-09T05:20:01.985Z,9.57
2019-06-09T05:22:37.889Z,7.67
2019-06-09T05:25:07.571Z,7.70
2019-06-09T05:27:45.172Z,6.87
2019-06-09T05:30:13.560Z,7.03
2019-06-09T05:32:46.859Z,7.13
2019-06-09T05:35:21.548Z,6.80
2019-06-09T05:37:53.205Z,6.87
2019-06-09T05:40:24.616Z,7.43
2019-06-09T05:42:57.133Z,7.27
2019-06-09T05:45:28.538Z,6.83
2019-06-09T05:48:01.256Z,6.90
2019-06-09T05:50:34.560Z,7.40
2019-06-09T05:53:06.087Z,7.47
2019-06-09T05:55:38.289Z,7.50
2019-06-09T05:58:11.361Z,7.63
2019-06-09T06:00:45.399Z,8.10
2019-06-09T06:03:16.211Z,7.67
2019-06-09T06:05:47.837Z,7.47
2019-06-09T06:08:18.508Z,7.40
2019-06-09T06:10:51.161Z,7.27
2019-06-09T06:13:22.644Z,7.60
2019-06-09T06:15:53.827Z,7.80
2019-06-09T06:18:25.139Z,7.57
2019-06-09T06:20:56.621Z,7.60
2019-06-09T06:23:27.937Z,7.00
2019-06-09T06:26:03.911Z,7.47
2019-06-09T06:28:33.508Z,6.60
2019-06-09T06:31:04.940Z,5.83
2019-06-09T06:33:36.408Z,5.80
2019-06-09T06:36:07.639Z,5.20
2019-06-09T06:38:41.754Z,4.80
2019-06-09T06:41:22.717Z,5.30
2019-06-09T06:43:53.952Z,4.73
2019-06-09T06:46:25.232Z,4.67
2019-06-09T06:48:56.919Z,4.93
2019-06-09T06:51:28.145Z,4.60
2019-06-09T06:54:01.016Z,4.53
2019-06-09T06:56:32.138Z,4.40
2019-06-09T06:59:03.719Z,4.40
2019-06-09T07:01:34.971Z,5.00
2019-06-09T07:04:06.354Z,4.80
2019-06-09T07:06:37.500Z,4.73
2019-06-09T07:09:10.931Z,4.67
2019-06-09T07:11:43.068Z,4.30
2019-06-09T07:14:15.471Z,4.83
2019-06-09T07:16:46.864Z,5.00
2019-06-09T07:19:20.620Z,4.40
2019-06-09T07:21:51.957Z,4.77
2019-06-09T07:24:24.829Z,5.00
2019-06-09T07:27:04.145Z,4.63
2019-06-09T07:29:36.627Z,4.53
2019-06-09T07:32:07.928Z,4.60
2019-06-09T07:34:42.304Z,4.80
2019-06-09T07:37:12.268Z,4.73
2019-06-09T07:39:45.504Z,4.30
2019-06-09T07:42:20.991Z,4.60
2019-06-09T07:44:55.851Z,4.13
2019-06-09T07:47:25.340Z,3.97
2019-06-09T07:49:57.049Z,3.70
2019-06-09T07:52:28.230Z,3.97
2019-06-09T07:55:01.295Z,4.23
2019-06-09T07:57:32.323Z,3.90
2019-06-09T08:00:03.848Z,4.10
2019-06-09T08:02:35.588Z,3.00
2019-06-09T08:05:06.870Z,2.50
2019-06-09T08:07:38.311Z,2.80
2019-06-09T08:10:10.886Z,2.53
2019-06-09T08:12:43.822Z,2.60
2019-06-09T08:15:15.421Z,3.23
2019-06-09T08:17:47.569Z,2.70
2019-06-09T08:20:21.655Z,5.60
2019-06-09T08:22:55.550Z,13.37
2019-06-09T08:25:25.469Z,14.23
2019-06-09T08:27:56.746Z,5.47
2019-06-09T08:30:40.845Z,7.80
2019-06-09T08:33:24.768Z,3.40
2019-06-09T08:35:58.169Z,19.47
2019-06-09T08:38:49.005Z,7.80
2019-06-09T08:41:11.476Z,3.93
2019-06-09T08:43:43.517Z,2.73
2019-06-09T08:46:15.119Z,2.70
2019-06-09T08:48:47.824Z,3.47
2019-06-09T08:51:21.328Z,2.00
2019-06-09T08:53:54.165Z,2.20
2019-06-09T08:56:27.118Z,2.93
2019-06-09T08:58:58.484Z,3.10
2019-06-09T09:01:31.685Z,3.07
2019-06-09T09:04:03.729Z,12.07
2019-06-09T09:06:35.153Z,4.67
2019-06-09T09:09:18.969Z,3.40
2019-06-09T09:11:41.665Z,7.53
2019-06-09T09:14:13.749Z,2.97
2019-06-09T09:16:45.000Z,2.60
2019-06-09T09:19:16.691Z,2.47
2019-06-09T09:21:48.837Z,2.50
2019-06-09T09:24:51.489Z,2.83
2019-06-09T09:26:57.187Z,3.97
2019-06-09T09:29:26.447Z,6.60
2019-06-09T09:31:58.764Z,5.10
2019-06-09T09:34:32.006Z,4.20
2019-06-09T09:37:03.497Z,7.37
2019-06-09T09:39:35.950Z,3.73
2019-06-09T09:42:08.481Z,21.53
2019-06-09T09:44:41.568Z,7.40
2019-06-09T09:47:13.297Z,5.63
2019-06-09T09:49:45.783Z,4.40
2019-06-09T09:52:17.680Z,9.37
2019-06-09T09:54:52.748Z,5.07
2019-06-09T09:57:22.516Z,3.40
2019-06-09T09:59:56.213Z,5.57
2019-06-09T10:02:26.569Z,3.03
2019-06-09T10:04:58.185Z,4.00
2019-06-09T10:07:31.617Z,4.50
2019-06-09T10:10:04.903Z,4.80
2019-06-09T10:12:36.793Z,4.00
2019-06-09T10:15:08.744Z,4.50
2019-06-09T10:17:41.925Z,4.37
2019-06-09T10:20:13.796Z,4.90
2019-06-09T10:22:45.025Z,5.00
2019-06-09T10:25:19.627Z,5.33
2019-06-09T10:27:52.453Z,5.00
2019-06-09T10:30:23.578Z,4.40
2019-06-09T10:32:57.268Z,5.10
2019-06-09T10:35:27.725Z,4.77
2019-06-09T10:38:00.293Z,6.13
2019-06-09T10:40:32.057Z,4.50
2019-06-09T10:43:04.425Z,4.97
2019-06-09T10:45:36.358Z,4.93
2019-06-09T10:48:07.586Z,5.27
2019-06-09T10:50:41.245Z,5.40
2019-06-09T10:53:11.911Z,6.23
2019-06-09T10:55:43.133Z,4.23
2019-06-09T10:58:26.807Z,4.53
2019-06-09T11:00:59.389Z,5.30
2019-06-09T11:03:30.985Z,4.63
2019-06-09T11:06:04.457Z,4.60
2019-06-09T11:08:35.568Z,4.83
2019-06-09T11:11:06.901Z,5.20
2019-06-09T11:13:38.339Z,4.67
2019-06-09T11:16:11.794Z,4.80
2019-06-09T11:18:43.319Z,4.70
2019-06-09T11:21:14.363Z,4.40
2019-06-09T11:23:45.725Z,4.10
2019-06-09T11:26:16.986Z,4.93
2019-06-09T11:28:48.312Z,4.57
2019-06-09T11:31:20.679Z,4.47
2019-06-09T11:33:53.624Z,4.47
2019-06-09T11:36:27.608Z,3.60
2019-06-09T11:39:01.796Z,4.37
2019-06-09T11:41:34.236Z,4.80
2019-06-09T11:44:05.624Z,4.50
2019-06-09T11:46:38.702Z,4.50
2019-06-09T11:49:12.823Z,4.67
2019-06-09T11:51:43.197Z,4.70
2019-06-09T11:54:14.687Z,4.93
2019-06-09T11:56:45.957Z,4.20
2019-06-09T11:59:17.119Z,4.00
2019-06-09T12:01:51.302Z,4.30
2019-06-09T12:04:22.058Z,4.30
2019-06-09T12:06:53.603Z,4.20
2019-06-09T12:09:25.218Z,3.90
2019-06-09T12:11:57.687Z,4.00
2019-06-09T12:14:29.151Z,3.93
2019-06-09T12:17:03.076Z,3.63
2019-06-09T12:19:33.539Z,4.00
2019-06-09T12:22:05.859Z,3.23
2019-06-09T12:24:41.162Z,3.83
2019-06-09T12:27:11.948Z,4.30
2019-06-09T12:29:45.359Z,3.70
2019-06-09T12:32:16.575Z,3.57
2019-06-09T12:34:47.772Z,3.70
2019-06-09T12:37:21.562Z,4.43
2019-06-09T12:39:52.580Z,4.03
2019-06-09T12:42:24.155Z,4.53
2019-06-09T12:44:56.475Z,4.50
2019-06-09T12:47:27.800Z,4.33
2019-06-09T12:50:01.675Z,4.37
2019-06-09T12:52:32.028Z,4.60
2019-06-09T12:55:05.641Z,4.87
2019-06-09T12:57:36.807Z,4.87
2019-06-09T13:00:17.512Z,5.73
2019-06-09T13:02:42.571Z,5.00
2019-06-09T13:05:14.548Z,5.00
2019-06-09T13:07:47.711Z,5.13
2019-06-09T13:10:21.568Z,5.23
2019-06-09T13:12:53.186Z,5.77
2019-06-09T13:15:24.595Z,5.97
2019-06-09T13:17:56.078Z,5.13
2019-06-09T13:20:27.684Z,6.20
2019-06-09T13:23:02.552Z,5.50
2019-06-09T13:25:34.601Z,5.53
2019-06-09T13:28:06.455Z,5.77
2019-06-09T13:30:40.975Z,6.03
2019-06-09T13:33:13.915Z,6.10
2019-06-09T13:35:45.647Z,7.10
2019-06-09T13:38:17.125Z,6.13
2019-06-09T13:40:48.576Z,6.93
2019-06-09T13:43:21.900Z,6.67
2019-06-09T13:45:53.141Z,7.33
2019-06-09T13:48:24.510Z,7.30
2019-06-09T13:50:56.525Z,7.30
2019-06-09T13:53:27.944Z,6.90
2019-06-09T13:56:01.369Z,7.57
2019-06-09T13:58:32.395Z,7.80
2019-06-09T14:01:06.326Z,7.60
2019-06-09T14:03:40.638Z,7.03
2019-06-09T14:06:14.493Z,6.47
2019-06-09T14:08:46.396Z,6.87
2019-06-09T14:11:18.231Z,6.37
2019-06-09T14:13:51.127Z,6.40
2019-06-09T14:16:32.350Z,6.10
2019-06-09T14:19:03.851Z,6.27
2019-06-09T14:21:35.348Z,6.33
2019-06-09T14:24:07.858Z,7.10
2019-06-09T14:26:41.476Z,11.00
2019-06-09T14:29:14.828Z,6.93
2019-06-09T14:31:59.934Z,6.07
2019-06-09T14:34:21.963Z,6.77
2019-06-09T14:36:52.132Z,7.03
2019-06-09T14:39:23.548Z,7.17
2019-06-09T14:41:55.079Z,6.67
2019-06-09T14:44:26.600Z,6.00
2019-06-09T14:47:05.687Z,5.40
2019-06-09T14:49:37.597Z,5.60
2019-06-09T14:52:09.834Z,5.70
2019-06-09T14:54:42.077Z,5.50
2019-06-09T14:57:14.929Z,5.70
2019-06-09T14:59:47.197Z,5.70
2019-06-09T15:02:21.050Z,5.83
2019-06-09T15:04:51.718Z,5.80
2019-06-09T15:07:23.230Z,5.63
2019-06-09T15:09:54.730Z,5.20
2019-06-09T15:12:38.129Z,5.30
2019-06-09T15:15:01.019Z,5.80
2019-06-09T15:17:32.875Z,5.60
2019-06-09T15:20:04.561Z,6.00
2019-06-09T15:22:36.047Z,4.97
2019-06-09T15:25:12.448Z,5.43
2019-06-09T15:27:41.975Z,5.73
2019-06-09T15:30:17.487Z,5.70
2019-06-09T15:32:46.911Z,5.50
2019-06-09T15:35:22.278Z,5.63
2019-06-09T15:38:01.220Z,5.20
2019-06-09T15:40:24.917Z,5.20
2019-06-09T15:42:56.481Z,5.53
2019-06-09T15:45:27.965Z,5.60
2019-06-09T15:48:00.903Z,5.60
2019-06-09T15:50:32.516Z,5.13
2019-06-09T15:53:04.421Z,5.47
2019-06-09T15:55:36.481Z,5.43
2019-06-09T15:58:07.958Z,5.17
2019-06-09T16:00:41.818Z,5.40
2019-06-09T16:03:13.948Z,6.07
2019-06-09T16:05:50.573Z,5.50
2019-06-09T16:08:23.925Z,8.93
2019-06-09T16:10:53.797Z,8.50
2019-06-09T16:13:31.182Z,7.80
2019-06-09T16:15:58.207Z,5.73
2019-06-09T16:18:31.062Z,5.53
2019-06-09T16:21:02.859Z,6.20
2019-06-09T16:23:33.450Z,5.40
2019-06-09T16:26:03.907Z,6.10
2019-06-09T16:28:36.124Z,5.47
2019-06-09T16:31:06.667Z,5.97
2019-06-09T16:33:37.019Z,6.80
2019-06-09T16:36:07.522Z,7.33
2019-06-09T16:38:40.438Z,7.20
2019-06-09T16:41:11.783Z,6.17
2019-06-09T16:43:50.485Z,6.70
2019-06-09T16:46:15.468Z,6.43
2019-06-09T16:48:45.943Z,6.23
2019-06-09T16:51:16.356Z,5.77
2019-06-09T16:53:48.003Z,6.20
2019-06-09T16:56:20.889Z,6.60
2019-06-09T16:58:51.537Z,6.33
2019-06-09T17:01:27.102Z,5.83
2019-06-09T17:03:58.663Z,5.50
2019-06-09T17:06:32.764Z,7.17
2019-06-09T17:09:06.262Z,18.33
2019-06-09T17:11:41.231Z,7.23
2019-06-09T17:14:12.167Z,7.07
2019-06-09T17:16:44.291Z,7.00
2019-06-09T17:19:15.856Z,8.53
2019-06-09T17:21:51.182Z,10.33
2019-06-09T17:24:27.371Z,11.27
2019-06-09T17:27:01.904Z,39.97
2019-06-09T17:29:38.699Z,59.27
2019-06-09T17:32:11.934Z,49.63
2019-06-09T17:34:43.707Z,18.47
2019-06-09T17:37:15.223Z,18.83
2019-06-09T17:39:48.695Z,29.60
2019-06-09T17:42:22.099Z,20.03
2019-06-09T17:44:53.243Z,8.17
2019-06-09T17:47:24.898Z,7.40
2019-06-09T17:49:55.619Z,8.40
2019-06-09T17:52:35.559Z,11.73
2019-06-09T17:55:12.653Z,14.27
2019-06-09T17:57:45.233Z,8.00
2019-06-09T18:00:18.250Z,8.53
2019-06-09T18:02:59.337Z,8.20
2019-06-09T18:05:22.947Z,8.27
2019-06-09T18:07:54.425Z,12.40
2019-06-09T18:10:25.971Z,8.80
2019-06-09T18:12:57.480Z,12.03
2019-06-09T18:15:32.914Z,11.70
2019-06-09T18:18:03.919Z,22.13
2019-06-09T18:20:36.299Z,24.90
2019-06-09T18:23:08.630Z,14.77
2019-06-09T18:25:41.980Z,29.23
2019-06-09T18:28:13.748Z,36.40
2019-06-09T18:30:53.999Z,39.47
2019-06-09T18:33:18.201Z,22.27
2019-06-09T18:35:51.732Z,30.17
2019-06-09T18:38:22.998Z,36.53
2019-06-09T18:40:56.070Z,43.67
2019-06-09T18:43:28.286Z,30.70
2019-06-09T18:46:01.608Z,16.20
2019-06-09T18:48:36.584Z,15.40
2019-06-09T18:51:06.578Z,17.87
2019-06-09T18:53:38.240Z,10.70
2019-06-09T18:56:09.850Z,10.33
2019-06-09T18:58:43.265Z,9.00
2019-06-09T19:01:14.552Z,23.40
2019-06-09T19:03:45.095Z,17.67
2019-06-09T19:06:15.602Z,7.90
2019-06-09T19:08:46.064Z,8.03
2019-06-09T19:11:16.888Z,8.43
2019-06-09T19:13:47.752Z,8.10
2019-06-09T19:16:21.076Z,8.77
2019-06-09T19:18:51.675Z,14.87
2019-06-09T19:21:22.467Z,10.70
2019-06-09T19:23:54.188Z,9.87
2019-06-09T19:26:24.698Z,9.23
2019-06-09T19:28:55.693Z,8.60
2019-06-09T19:31:26.819Z,9.97
2019-06-09T19:33:57.396Z,15.03
2019-06-09T19:36:31.472Z,25.33
2019-06-09T19:39:01.138Z,31.23
2019-06-09T19:41:33.164Z,35.80
2019-06-09T19:44:03.622Z,30.77
2019-06-09T19:46:34.444Z,29.80
2019-06-09T19:49:05.017Z,35.73
2019-06-09T19:51:35.678Z,35.87
2019-06-09T19:54:06.437Z,14.47
2019-06-09T19:56:38.475Z,27.57
2019-06-09T19:59:10.634Z,31.47
2019-06-09T20:01:43.390Z,25.63
2019-06-09T20:04:13.893Z,18.50
2019-06-09T20:06:46.739Z,20.90
2019-06-09T20:09:17.126Z,26.27
2019-06-09T20:11:48.076Z,18.50
2019-06-09T20:14:20.722Z,18.80
2019-06-09T20:16:51.636Z,27.80
2019-06-09T20:19:22.379Z,21.23
2019-06-09T20:21:52.946Z,11.30
2019-06-09T20:24:24.106Z,10.40
2019-06-09T20:26:55.638Z,9.63
2019-06-09T20:29:26.296Z,8.73
2019-06-09T20:31:57.910Z,8.67
2019-06-09T20:34:31.043Z,8.67
2019-06-09T20:37:02.966Z,8.70
2019-06-09T20:39:38.435Z,8.70
2019-06-09T20:42:08.167Z,8.90
2019-06-09T20:44:42.796Z,8.67
2019-06-09T20:47:12.870Z,8.60
2019-06-09T20:49:47.064Z,8.70
2019-06-09T20:52:17.642Z,9.13
2019-06-09T20:54:51.790Z,8.93
2019-06-09T20:57:22.196Z,8.53
2019-06-09T20:59:55.170Z,8.63
2019-06-09T21:02:26.828Z,9.57
2019-06-09T21:05:01.147Z,9.50
2019-06-09T21:07:33.922Z,9.87
2019-06-09T21:10:06.145Z,9.90
2019-06-09T21:12:40.718Z,9.57
2019-06-09T21:15:12.337Z,10.13
2019-06-09T21:17:50.543Z,10.60
2019-06-09T21:20:17.630Z,10.00
2019-06-09T21:22:50.097Z,9.47
2019-06-09T21:25:21.764Z,9.70
2019-06-09T21:27:54.572Z,9.90
2019-06-09T21:30:35.125Z,10.00
2019-06-09T21:33:06.510Z,9.57
2019-06-09T21:35:37.966Z,9.37
2019-06-09T21:38:10.939Z,10.10
2019-06-09T21:40:43.301Z,9.77
2019-06-09T21:43:15.503Z,9.93
2019-06-09T21:45:48.032Z,10.83
2019-06-09T21:48:19.637Z,11.03
2019-06-09T21:50:53.547Z,12.00
2019-06-09T21:53:24.193Z,12.43
2019-06-09T21:55:56.997Z,11.03
2019-06-09T21:58:28.396Z,12.70
2019-06-09T22:01:01.050Z,11.53
2019-06-09T22:03:32.725Z,10.90
2019-06-09T22:06:04.341Z,11.67
2019-06-09T22:08:36.155Z,10.87
2019-06-09T22:11:07.802Z,10.87
2019-06-09T22:13:40.850Z,11.37
2019-06-09T22:16:12.313Z,11.03
2019-06-09T22:18:43.687Z,10.63
2019-06-09T22:21:15.229Z,10.97
2019-06-09T22:23:51.769Z,10.63
2019-06-09T22:26:25.428Z,11.30
2019-06-09T22:28:56.348Z,11.63
2019-06-09T22:31:28.656Z,12.33
2019-06-09T22:34:01.676Z,13.07
2019-06-09T22:36:33.299Z,12.90
2019-06-09T22:39:07.104Z,12.70
2019-06-09T22:41:38.627Z,12.63
2019-06-09T22:44:11.884Z,13.40
2019-06-09T22:46:43.199Z,26.63
2019-06-09T22:49:14.615Z,21.37
2019-06-09T22:51:46.249Z,38.73
2019-06-09T22:54:17.712Z,62.40
2019-06-09T22:56:51.949Z,43.00
2019-06-09T22:59:24.344Z,34.47
2019-06-09T23:01:58.315Z,53.10
2019-06-09T23:04:30.357Z,54.63
2019-06-09T23:07:03.425Z,34.30
2019-06-09T23:09:35.109Z,29.30
2019-06-09T23:12:08.186Z,26.47
2019-06-09T23:14:41.441Z,24.73
2019-06-09T23:17:21.620Z,28.77
2019-06-09T23:19:45.962Z,21.47
2019-06-09T23:22:17.672Z,14.13
2019-06-09T23:24:51.142Z,13.20
2019-06-09T23:27:22.422Z,13.10
2019-06-09T23:29:53.992Z,12.63
2019-06-09T23:32:25.632Z,13.23
2019-06-09T23:34:57.153Z,12.73
2019-06-09T23:37:28.727Z,12.90
2019-06-09T23:40:02.416Z,13.00
2019-06-09T23:42:33.776Z,13.23
2019-06-09T23:45:06.838Z,14.23
2019-06-09T23:47:44.483Z,12.63
2019-06-09T23:50:12.886Z,13.13
2019-06-09T23:52:44.343Z,13.83
2019-06-09T23:55:15.722Z,13.07
2019-06-09T23:57:47.208Z,13.27
